sensor_id;sensor_type;location;lat;lon;timestamp;pressure;altitude;pressure_sealevel;temperature;humidity
17230;BME280;8731;50.364;8.958;2023-06-14T00:00:02;99754.84;;;18.64;48.21
17230;BME280;8731;50.364;8.958;2023-06-14T00:04:26;99756.34;;;18.60;48.94
17230;BME280;8731;50.364;8.958;2023-06-14T00:08:48;99756.19;;;18.57;48.56
17230;BME280;8731;50.364;8.958;2023-06-14T00:13:12;99766.41;;;18.56;47.85
17230;BME280;8731;50.364;8.958;2023-06-14T00:17:35;99764.06;;;18.60;47.52
17230;BME280;8731;50.364;8.958;2023-06-14T00:21:59;99761.00;;;18.51;47.66
17230;BME280;8731;50.364;8.958;2023-06-14T00:26:22;99762.41;;;18.30;49.39
17230;BME280;8731;50.364;8.958;2023-06-14T00:30:47;99765.66;;;18.42;48.06
17230;BME280;8731;50.364;8.958;2023-06-14T00:35:10;99769.50;;;18.34;47.97
17230;BME280;8731;50.364;8.958;2023-06-14T00:39:32;99769.81;;;18.24;48.82
17230;BME280;8731;50.364;8.958;2023-06-14T00:43:55;99761.22;;;18.08;50.57
17230;BME280;8731;50.364;8.958;2023-06-14T00:48:19;99767.88;;;17.46;53.90
17230;BME280;8731;50.364;8.958;2023-06-14T00:52:42;99773.78;;;17.88;52.13
17230;BME280;8731;50.364;8.958;2023-06-14T00:57:05;99776.63;;;17.05;55.77
17230;BME280;8731;50.364;8.958;2023-06-14T01:01:28;99774.19;;;17.51;54.44
17230;BME280;8731;50.364;8.958;2023-06-14T01:06:00;99788.34;;;16.87;57.44
17230;BME280;8731;50.364;8.958;2023-06-14T01:10:35;99784.38;;;17.35;54.41
17230;BME280;8731;50.364;8.958;2023-06-14T01:15:08;99786.75;;;16.89;57.14
17230;BME280;8731;50.364;8.958;2023-06-14T01:19:32;99787.69;;;17.04;55.27
17230;BME280;8731;50.364;8.958;2023-06-14T01:23:57;99782.06;;;16.97;56.82
17230;BME280;8731;50.364;8.958;2023-06-14T01:28:21;99789.06;;;16.84;57.48
17230;BME280;8731;50.364;8.958;2023-06-14T01:32:45;99792.19;;;16.39;58.31
17230;BME280;8731;50.364;8.958;2023-06-14T01:37:08;99797.09;;;16.63;57.33
17230;BME280;8731;50.364;8.958;2023-06-14T01:41:34;99789.38;;;16.49;58.01
17230;BME280;8731;50.364;8.958;2023-06-14T01:45:57;99791.94;;;16.49;58.40
17230;BME280;8731;50.364;8.958;2023-06-14T01:50:21;99788.31;;;16.46;57.81
17230;BME280;8731;50.364;8.958;2023-06-14T01:54:44;99794.44;;;16.48;57.43
17230;BME280;8731;50.364;8.958;2023-06-14T01:59:09;99795.31;;;15.69;62.49
17230;BME280;8731;50.364;8.958;2023-06-14T02:03:31;99796.72;;;16.04;59.73
17230;BME280;8731;50.364;8.958;2023-06-14T02:07:54;99794.84;;;16.27;58.69
17230;BME280;8731;50.364;8.958;2023-06-14T02:12:16;99794.34;;;15.80;61.40
17230;BME280;8731;50.364;8.958;2023-06-14T02:16:40;99789.03;;;16.17;59.38
17230;BME280;8731;50.364;8.958;2023-06-14T02:21:09;99799.03;;;15.61;61.78
17230;BME280;8731;50.364;8.958;2023-06-14T02:25:32;99807.06;;;15.41;63.92
17230;BME280;8731;50.364;8.958;2023-06-14T02:29:54;99811.22;;;15.52;62.47
17230;BME280;8731;50.364;8.958;2023-06-14T02:34:18;99816.59;;;15.30;63.20
17230;BME280;8731;50.364;8.958;2023-06-14T02:38:42;99823.81;;;15.35;62.19
17230;BME280;8731;50.364;8.958;2023-06-14T02:43:05;99823.47;;;15.18;63.10
17230;BME280;8731;50.364;8.958;2023-06-14T02:47:28;99824.25;;;15.17;62.89
17230;BME280;8731;50.364;8.958;2023-06-14T02:51:52;99835.09;;;14.64;65.41
17230;BME280;8731;50.364;8.958;2023-06-14T02:56:14;99825.47;;;15.10;62.40
17230;BME280;8731;50.364;8.958;2023-06-14T03:00:37;99825.81;;;15.15;61.85
17230;BME280;8731;50.364;8.958;2023-06-14T03:05:01;99836.81;;;14.89;62.88
17230;BME280;8731;50.364;8.958;2023-06-14T03:09:26;99836.63;;;14.74;64.96
17230;BME280;8731;50.364;8.958;2023-06-14T03:13:50;99841.31;;;14.80;63.86
17230;BME280;8731;50.364;8.958;2023-06-14T03:18:13;99840.63;;;14.82;62.71
17230;BME280;8731;50.364;8.958;2023-06-14T03:22:36;99853.50;;;14.47;65.63
17230;BME280;8731;50.364;8.958;2023-06-14T03:27:02;99855.38;;;14.03;67.74
17230;BME280;8731;50.364;8.958;2023-06-14T03:31:25;99854.28;;;14.46;65.40
17230;BME280;8731;50.364;8.958;2023-06-14T03:35:48;99860.81;;;14.07;67.17
17230;BME280;8731;50.364;8.958;2023-06-14T03:40:13;99866.69;;;14.18;66.84
17230;BME280;8731;50.364;8.958;2023-06-14T03:44:40;99868.41;;;14.29;65.51
17230;BME280;8731;50.364;8.958;2023-06-14T03:49:03;99870.88;;;14.51;64.43
17230;BME280;8731;50.364;8.958;2023-06-14T03:53:25;99875.84;;;14.14;66.28
17230;BME280;8731;50.364;8.958;2023-06-14T03:57:49;99883.19;;;13.98;68.47
17230;BME280;8731;50.364;8.958;2023-06-14T04:02:13;99887.09;;;13.60;72.32
17230;BME280;8731;50.364;8.958;2023-06-14T04:06:38;99895.16;;;13.88;69.69
17230;BME280;8731;50.364;8.958;2023-06-14T04:11:01;99891.19;;;14.14;68.21
17230;BME280;8731;50.364;8.958;2023-06-14T04:15:25;99906.97;;;13.86;71.39
17230;BME280;8731;50.364;8.958;2023-06-14T04:19:50;99905.53;;;14.46;68.09
17230;BME280;8731;50.364;8.958;2023-06-14T04:24:13;99904.34;;;15.01;65.83
17230;BME280;8731;50.364;8.958;2023-06-14T04:28:38;99903.81;;;15.55;65.34
17230;BME280;8731;50.364;8.958;2023-06-14T04:33:02;99912.28;;;15.29;64.83
17230;BME280;8731;50.364;8.958;2023-06-14T04:37:28;99909.72;;;15.90;64.30
17230;BME280;8731;50.364;8.958;2023-06-14T04:41:52;99915.31;;;16.36;63.39
17230;BME280;8731;50.364;8.958;2023-06-14T04:46:18;99916.31;;;16.51;63.19
17230;BME280;8731;50.364;8.958;2023-06-14T04:50:40;99920.09;;;16.70;62.14
17230;BME280;8731;50.364;8.958;2023-06-14T04:55:07;99915.00;;;17.95;58.29
17230;BME280;8731;50.364;8.958;2023-06-14T04:59:30;99918.22;;;18.64;56.75
17230;BME280;8731;50.364;8.958;2023-06-14T05:03:56;99923.13;;;19.22;54.87
17230;BME280;8731;50.364;8.958;2023-06-14T05:08:18;99924.38;;;18.97;55.39
17230;BME280;8731;50.364;8.958;2023-06-14T05:12:45;99915.22;;;19.35;54.46
17230;BME280;8731;50.364;8.958;2023-06-14T05:17:08;99917.19;;;20.22;51.49
17230;BME280;8731;50.364;8.958;2023-06-14T05:21:31;99911.91;;;20.03;50.81
17230;BME280;8731;50.364;8.958;2023-06-14T05:25:54;99913.78;;;20.57;49.70
17230;BME280;8731;50.364;8.958;2023-06-14T05:30:19;99914.31;;;20.68;48.65
17230;BME280;8731;50.364;8.958;2023-06-14T05:34:42;99916.31;;;20.73;48.64
17230;BME280;8731;50.364;8.958;2023-06-14T05:39:05;99907.56;;;21.44;47.40
17230;BME280;8731;50.364;8.958;2023-06-14T05:43:28;99910.56;;;21.34;47.61
17230;BME280;8731;50.364;8.958;2023-06-14T05:47:53;99913.38;;;21.98;46.47
17230;BME280;8731;50.364;8.958;2023-06-14T05:52:15;99921.59;;;21.88;46.51
17230;BME280;8731;50.364;8.958;2023-06-14T05:56:38;99929.31;;;22.05;45.46
17230;BME280;8731;50.364;8.958;2023-06-14T06:01:00;99928.25;;;22.63;45.24
17230;BME280;8731;50.364;8.958;2023-06-14T06:05:24;99930.53;;;22.55;44.65
17230;BME280;8731;50.364;8.958;2023-06-14T06:09:46;99932.19;;;22.95;43.98
17230;BME280;8731;50.364;8.958;2023-06-14T06:14:09;99935.91;;;24.43;41.54
17230;BME280;8731;50.364;8.958;2023-06-14T06:18:31;99927.63;;;23.56;42.66
17230;BME280;8731;50.364;8.958;2023-06-14T06:22:55;99925.59;;;24.46;42.55
17230;BME280;8731;50.364;8.958;2023-06-14T06:27:17;99936.03;;;23.97;41.68
17230;BME280;8731;50.364;8.958;2023-06-14T06:31:40;99940.88;;;23.64;42.45
17230;BME280;8731;50.364;8.958;2023-06-14T06:36:03;99941.88;;;24.15;41.45
17230;BME280;8731;50.364;8.958;2023-06-14T06:40:27;99938.72;;;24.76;40.87
17230;BME280;8731;50.364;8.958;2023-06-14T06:44:49;99953.72;;;24.07;41.21
17230;BME280;8731;50.364;8.958;2023-06-14T06:49:11;99950.56;;;24.94;40.91
17230;BME280;8731;50.364;8.958;2023-06-14T06:53:34;99951.13;;;25.11;39.73
17230;BME280;8731;50.364;8.958;2023-06-14T06:57:58;99951.28;;;25.74;39.95
17230;BME280;8731;50.364;8.958;2023-06-14T07:02:21;99953.81;;;25.42;40.58
17230;BME280;8731;50.364;8.958;2023-06-14T07:06:44;99954.25;;;25.86;39.68
17230;BME280;8731;50.364;8.958;2023-06-14T07:11:07;99962.22;;;24.78;40.49
17230;BME280;8731;50.364;8.958;2023-06-14T07:15:31;99960.50;;;25.32;39.50
17230;BME280;8731;50.364;8.958;2023-06-14T07:19:54;99970.47;;;24.65;39.59
17230;BME280;8731;50.364;8.958;2023-06-14T07:24:16;99963.47;;;26.36;37.55
17230;BME280;8731;50.364;8.958;2023-06-14T07:28:41;99969.56;;;27.06;36.67
17230;BME280;8731;50.364;8.958;2023-06-14T07:33:06;99967.56;;;27.33;36.69
17230;BME280;8731;50.364;8.958;2023-06-14T07:37:31;99954.34;;;26.91;38.03
17230;BME280;8731;50.364;8.958;2023-06-14T07:41:54;99958.41;;;27.53;36.38
17230;BME280;8731;50.364;8.958;2023-06-14T07:46:16;99963.59;;;27.50;36.44
17230;BME280;8731;50.364;8.958;2023-06-14T07:50:41;99975.66;;;27.06;35.92
17230;BME280;8731;50.364;8.958;2023-06-14T07:55:04;99962.66;;;27.91;34.71
17230;BME280;8731;50.364;8.958;2023-06-14T07:59:27;99966.63;;;28.62;33.81
17230;BME280;8731;50.364;8.958;2023-06-14T08:03:49;99970.06;;;27.68;35.20
17230;BME280;8731;50.364;8.958;2023-06-14T08:08:13;99966.56;;;28.59;33.56
17230;BME280;8731;50.364;8.958;2023-06-14T08:12:36;99969.84;;;28.45;33.82
17230;BME280;8731;50.364;8.958;2023-06-14T08:16:59;99976.53;;;26.05;36.79
17230;BME280;8731;50.364;8.958;2023-06-14T08:21:21;99978.63;;;26.19;36.37
17230;BME280;8731;50.364;8.958;2023-06-14T08:25:45;99988.72;;;25.19;37.66
17230;BME280;8731;50.364;8.958;2023-06-14T08:30:09;99984.69;;;26.50;36.51
17230;BME280;8731;50.364;8.958;2023-06-14T08:34:32;99981.41;;;26.25;36.61
17230;BME280;8731;50.364;8.958;2023-06-14T08:38:55;99983.69;;;27.53;35.22
17230;BME280;8731;50.364;8.958;2023-06-14T08:43:19;99971.88;;;27.31;36.01
17230;BME280;8731;50.364;8.958;2023-06-14T08:47:41;99980.47;;;27.26;35.91
17230;BME280;8731;50.364;8.958;2023-06-14T08:52:08;99982.94;;;27.19;36.18
17230;BME280;8731;50.364;8.958;2023-06-14T08:56:33;99979.78;;;26.62;36.55
17230;BME280;8731;50.364;8.958;2023-06-14T09:00:59;99974.81;;;27.87;35.19
17230;BME280;8731;50.364;8.958;2023-06-14T09:05:23;99980.06;;;27.46;34.98
17230;BME280;8731;50.364;8.958;2023-06-14T09:09:47;99975.41;;;26.28;36.02
17230;BME280;8731;50.364;8.958;2023-06-14T09:14:09;99972.56;;;26.86;35.03
17230;BME280;8731;50.364;8.958;2023-06-14T09:18:37;99974.13;;;28.91;33.71
17230;BME280;8731;50.364;8.958;2023-06-14T09:23:02;99986.06;;;27.81;34.38
17230;BME280;8731;50.364;8.958;2023-06-14T09:27:27;99996.94;;;27.21;34.83
17230;BME280;8731;50.364;8.958;2023-06-14T09:31:50;99999.59;;;28.48;32.44
17230;BME280;8731;50.364;8.958;2023-06-14T09:36:17;99990.38;;;27.79;34.14
17230;BME280;8731;50.364;8.958;2023-06-14T09:40:40;99998.06;;;25.67;37.01
17230;BME280;8731;50.364;8.958;2023-06-14T09:45:03;99996.13;;;26.89;36.09
17230;BME280;8731;50.364;8.958;2023-06-14T09:49:27;99997.03;;;26.55;35.67
17230;BME280;8731;50.364;8.958;2023-06-14T09:53:51;99996.16;;;27.65;34.62
17230;BME280;8731;50.364;8.958;2023-06-14T09:58:16;99987.22;;;26.47;35.70
17230;BME280;8731;50.364;8.958;2023-06-14T10:02:42;99987.03;;;28.30;33.97
17230;BME280;8731;50.364;8.958;2023-06-14T10:07:11;99989.09;;;28.03;33.80
17230;BME280;8731;50.364;8.958;2023-06-14T10:11:37;99988.88;;;26.12;36.51
17230;BME280;8731;50.364;8.958;2023-06-14T10:16:09;99988.13;;;26.16;35.26
17230;BME280;8731;50.364;8.958;2023-06-14T10:20:41;99980.34;;;28.46;33.64
17230;BME280;8731;50.364;8.958;2023-06-14T10:25:12;99986.78;;;26.30;35.42
17230;BME280;8731;50.364;8.958;2023-06-14T10:30:04;99993.91;;;26.70;34.91
17230;BME280;8731;50.364;8.958;2023-06-14T10:34:30;99983.75;;;27.17;35.29
17230;BME280;8731;50.364;8.958;2023-06-14T10:38:58;99987.19;;;27.53;34.34
17230;BME280;8731;50.364;8.958;2023-06-14T10:43:23;99987.66;;;26.30;37.30
17230;BME280;8731;50.364;8.958;2023-06-14T10:47:48;99985.19;;;28.25;34.84
17230;BME280;8731;50.364;8.958;2023-06-14T10:52:14;99982.25;;;26.56;35.75
17230;BME280;8731;50.364;8.958;2023-06-14T10:56:46;99983.31;;;26.31;35.40
17230;BME280;8731;50.364;8.958;2023-06-14T11:01:09;99989.28;;;25.65;36.74
17230;BME280;8731;50.364;8.958;2023-06-14T11:05:42;99987.97;;;26.10;37.41
17230;BME280;8731;50.364;8.958;2023-06-14T11:10:21;99989.28;;;25.08;39.17
17230;BME280;8731;50.364;8.958;2023-06-14T11:14:54;99988.75;;;26.07;36.45
17230;BME280;8731;50.364;8.958;2023-06-14T11:19:16;99981.75;;;25.75;36.76
17230;BME280;8731;50.364;8.958;2023-06-14T11:23:40;99995.06;;;25.00;37.04
17230;BME280;8731;50.364;8.958;2023-06-14T11:28:03;99987.97;;;25.51;36.88
17230;BME280;8731;50.364;8.958;2023-06-14T11:32:26;99983.69;;;25.25;38.20
17230;BME280;8731;50.364;8.958;2023-06-14T11:36:48;99992.41;;;25.25;37.38
17230;BME280;8731;50.364;8.958;2023-06-14T11:41:12;99997.22;;;24.86;37.56
17230;BME280;8731;50.364;8.958;2023-06-14T11:45:34;99988.50;;;26.29;36.13
17230;BME280;8731;50.364;8.958;2023-06-14T11:49:59;99977.00;;;26.54;36.59
17230;BME280;8731;50.364;8.958;2023-06-14T11:54:22;99979.13;;;26.36;36.78
17230;BME280;8731;50.364;8.958;2023-06-14T11:58:46;99983.31;;;26.31;36.86
17230;BME280;8731;50.364;8.958;2023-06-14T12:03:09;99986.69;;;25.37;38.71
17230;BME280;8731;50.364;8.958;2023-06-14T12:07:33;99989.28;;;25.08;38.06
17230;BME280;8731;50.364;8.958;2023-06-14T12:11:59;99985.59;;;25.87;37.49
17230;BME280;8731;50.364;8.958;2023-06-14T12:16:30;99988.28;;;26.22;36.90
17230;BME280;8731;50.364;8.958;2023-06-14T12:20:53;99995.38;;;25.66;38.09
17230;BME280;8731;50.364;8.958;2023-06-14T12:25:29;99977.91;;;26.56;36.13
17230;BME280;8731;50.364;8.958;2023-06-14T12:29:59;99976.38;;;26.99;36.15
17230;BME280;8731;50.364;8.958;2023-06-14T12:34:24;99982.75;;;25.51;38.31
17230;BME280;8731;50.364;8.958;2023-06-14T12:38:47;99976.44;;;25.72;38.11
17230;BME280;8731;50.364;8.958;2023-06-14T12:43:13;99972.03;;;27.00;36.20
17230;BME280;8731;50.364;8.958;2023-06-14T12:47:36;99968.59;;;27.01;36.11
17230;BME280;8731;50.364;8.958;2023-06-14T12:52:00;99972.00;;;26.30;36.97
17230;BME280;8731;50.364;8.958;2023-06-14T12:56:22;99966.16;;;25.78;38.09
17230;BME280;8731;50.364;8.958;2023-06-14T13:00:45;99969.81;;;26.14;38.64
17230;BME280;8731;50.364;8.958;2023-06-14T13:05:07;99970.53;;;25.79;37.09
17230;BME280;8731;50.364;8.958;2023-06-14T13:09:31;99969.72;;;26.11;35.86
17230;BME280;8731;50.364;8.958;2023-06-14T13:13:54;99968.13;;;25.85;36.44
17230;BME280;8731;50.364;8.958;2023-06-14T13:18:17;99972.25;;;26.08;37.18
17230;BME280;8731;50.364;8.958;2023-06-14T13:22:39;99962.81;;;26.13;35.45
17230;BME280;8731;50.364;8.958;2023-06-14T13:27:04;99979.81;;;25.67;37.21
17230;BME280;8731;50.364;8.958;2023-06-14T13:31:27;99978.25;;;25.17;38.01
17230;BME280;8731;50.364;8.958;2023-06-14T13:35:50;99974.19;;;25.27;38.54
17230;BME280;8731;50.364;8.958;2023-06-14T13:40:13;99971.31;;;25.75;37.26
17230;BME280;8731;50.364;8.958;2023-06-14T13:44:37;99962.03;;;25.84;37.42
17230;BME280;8731;50.364;8.958;2023-06-14T13:48:59;99973.47;;;25.59;38.01
17230;BME280;8731;50.364;8.958;2023-06-14T13:53:25;99961.53;;;25.67;37.93
17230;BME280;8731;50.364;8.958;2023-06-14T13:57:47;99959.44;;;25.56;37.76
17230;BME280;8731;50.364;8.958;2023-06-14T14:02:12;99964.97;;;25.08;39.28
17230;BME280;8731;50.364;8.958;2023-06-14T14:06:35;99959.88;;;25.69;38.91
17230;BME280;8731;50.364;8.958;2023-06-14T14:10:58;99963.25;;;25.08;38.92
17230;BME280;8731;50.364;8.958;2023-06-14T14:15:22;99956.63;;;25.50;37.76
17230;BME280;8731;50.364;8.958;2023-06-14T14:19:47;99952.72;;;25.34;36.66
17230;BME280;8731;50.364;8.958;2023-06-14T14:24:09;99943.03;;;25.90;36.95
17230;BME280;8731;50.364;8.958;2023-06-14T14:28:32;99940.19;;;26.12;36.50
17230;BME280;8731;50.364;8.958;2023-06-14T14:32:54;99951.28;;;25.74;37.14
17230;BME280;8731;50.364;8.958;2023-06-14T14:37:18;99951.00;;;25.64;37.59
17230;BME280;8731;50.364;8.958;2023-06-14T14:41:41;99934.56;;;26.30;37.33
17230;BME280;8731;50.364;8.958;2023-06-14T14:46:03;99934.69;;;26.35;36.78
17230;BME280;8731;50.364;8.958;2023-06-14T14:50:26;99937.81;;;26.92;35.68
17230;BME280;8731;50.364;8.958;2023-06-14T14:54:50;99955.84;;;25.52;37.87
17230;BME280;8731;50.364;8.958;2023-06-14T14:59:13;99948.38;;;25.64;37.48
17230;BME280;8731;50.364;8.958;2023-06-14T15:03:36;99953.22;;;25.52;37.29
17230;BME280;8731;50.364;8.958;2023-06-14T15:07:58;99949.31;;;25.08;38.34
17230;BME280;8731;50.364;8.958;2023-06-14T15:12:22;99945.63;;;25.30;37.53
17230;BME280;8731;50.364;8.958;2023-06-14T15:16:44;99930.63;;;26.13;36.78
17230;BME280;8731;50.364;8.958;2023-06-14T15:21:07;99929.81;;;26.15;36.55
17230;BME280;8731;50.364;8.958;2023-06-14T15:25:30;99934.34;;;25.89;36.94
17230;BME280;8731;50.364;8.958;2023-06-14T15:29:54;99949.38;;;25.09;37.26
17230;BME280;8731;50.364;8.958;2023-06-14T15:34:17;99949.94;;;25.29;37.39
17230;BME280;8731;50.364;8.958;2023-06-14T15:38:39;99950.63;;;24.95;37.73
17230;BME280;8731;50.364;8.958;2023-06-14T15:43:02;99947.66;;;25.10;38.11
17230;BME280;8731;50.364;8.958;2023-06-14T15:47:26;99949.47;;;25.13;38.20
17230;BME280;8731;50.364;8.958;2023-06-14T15:51:48;99940.41;;;25.58;37.35
17230;BME280;8731;50.364;8.958;2023-06-14T15:56:12;99939.31;;;25.52;37.53
17230;BME280;8731;50.364;8.958;2023-06-14T16:00:34;99939.75;;;24.82;38.21
17230;BME280;8731;50.364;8.958;2023-06-14T16:04:58;99937.19;;;25.08;36.74
17230;BME280;8731;50.364;8.958;2023-06-14T16:09:21;99927.91;;;24.91;37.24
17230;BME280;8731;50.364;8.958;2023-06-14T16:13:45;99935.75;;;25.48;36.45
17230;BME280;8731;50.364;8.958;2023-06-14T16:18:07;99920.78;;;25.71;37.24
17230;BME280;8731;50.364;8.958;2023-06-14T16:22:31;99934.81;;;25.46;37.42
17230;BME280;8731;50.364;8.958;2023-06-14T16:26:54;99931.13;;;25.68;37.09
17230;BME280;8731;50.364;8.958;2023-06-14T16:31:16;99929.13;;;25.59;36.21
17230;BME280;8731;50.364;8.958;2023-06-14T16:35:39;99931.13;;;25.68;36.34
17230;BME280;8731;50.364;8.958;2023-06-14T16:40:04;99931.66;;;25.56;37.15
17230;BME280;8731;50.364;8.958;2023-06-14T16:44:27;99934.00;;;25.19;37.41
17230;BME280;8731;50.364;8.958;2023-06-14T16:48:49;99942.19;;;25.02;37.64
17230;BME280;8731;50.364;8.958;2023-06-14T16:53:12;99949.47;;;25.13;37.23
17230;BME280;8731;50.364;8.958;2023-06-14T16:57:37;99959.78;;;25.09;37.01
17230;BME280;8731;50.364;8.958;2023-06-14T17:02:01;99959.06;;;24.61;37.35
17230;BME280;8731;50.364;8.958;2023-06-14T17:06:25;99956.38;;;24.85;37.37
17230;BME280;8731;50.364;8.958;2023-06-14T17:10:47;99967.25;;;24.46;38.38
17230;BME280;8731;50.364;8.958;2023-06-14T17:15:11;99962.69;;;24.39;38.29
17230;BME280;8731;50.364;8.958;2023-06-14T17:19:34;99970.31;;;24.35;37.86
17230;BME280;8731;50.364;8.958;2023-06-14T17:23:57;99969.84;;;24.46;37.86
17230;BME280;8731;50.364;8.958;2023-06-14T17:28:20;99976.19;;;24.29;38.10
17230;BME280;8731;50.364;8.958;2023-06-14T17:32:44;99972.59;;;24.51;38.02
17230;BME280;8731;50.364;8.958;2023-06-14T17:37:07;99970.69;;;24.45;37.90
17230;BME280;8731;50.364;8.958;2023-06-14T17:41:29;99981.44;;;24.31;38.32
17230;BME280;8731;50.364;8.958;2023-06-14T17:45:51;99980.91;;;24.39;38.00
17230;BME280;8731;50.364;8.958;2023-06-14T17:50:15;99989.59;;;24.40;38.04
17230;BME280;8731;50.364;8.958;2023-06-14T17:54:38;99987.81;;;24.39;38.22
17230;BME280;8731;50.364;8.958;2023-06-14T17:59:00;99998.56;;;24.00;39.24
17230;BME280;8731;50.364;8.958;2023-06-14T18:03:23;100001.22;;;24.02;39.61
17230;BME280;8731;50.364;8.958;2023-06-14T18:07:47;100007.28;;;23.78;40.11
17230;BME280;8731;50.364;8.958;2023-06-14T18:12:10;100010.25;;;23.65;40.36
17230;BME280;8731;50.364;8.958;2023-06-14T18:16:33;100016.69;;;23.75;40.19
17230;BME280;8731;50.364;8.958;2023-06-14T18:20:56;100021.00;;;23.74;40.14
17230;BME280;8731;50.364;8.958;2023-06-14T18:25:21;100026.72;;;23.66;39.81
17230;BME280;8731;50.364;8.958;2023-06-14T18:29:44;100021.94;;;23.54;39.32
17230;BME280;8731;50.364;8.958;2023-06-14T18:34:07;100034.53;;;23.43;39.61
17230;BME280;8731;50.364;8.958;2023-06-14T18:38:31;100038.34;;;23.31;39.60
17230;BME280;8731;50.364;8.958;2023-06-14T18:42:55;100031.09;;;23.22;40.15
17230;BME280;8731;50.364;8.958;2023-06-14T18:47:18;100035.59;;;23.05;40.70
17230;BME280;8731;50.364;8.958;2023-06-14T18:51:40;100049.28;;;23.01;41.22
17230;BME280;8731;50.364;8.958;2023-06-14T18:56:03;100042.00;;;22.92;41.49
17230;BME280;8731;50.364;8.958;2023-06-14T19:00:27;100051.56;;;22.53;42.23
17230;BME280;8731;50.364;8.958;2023-06-14T19:04:51;100043.53;;;22.68;41.99
17230;BME280;8731;50.364;8.958;2023-06-14T19:09:15;100053.91;;;22.68;41.81
17230;BME280;8731;50.364;8.958;2023-06-14T19:13:38;100054.41;;;22.59;42.29
17230;BME280;8731;50.364;8.958;2023-06-14T19:18:03;100048.94;;;22.32;42.87
17230;BME280;8731;50.364;8.958;2023-06-14T19:22:26;100059.56;;;22.39;42.87
17230;BME280;8731;50.364;8.958;2023-06-14T19:26:49;100058.56;;;22.35;42.86
17230;BME280;8731;50.364;8.958;2023-06-14T19:31:12;100060.81;;;22.27;42.58
17230;BME280;8731;50.364;8.958;2023-06-14T19:35:36;100077.28;;;22.09;43.32
17230;BME280;8731;50.364;8.958;2023-06-14T19:39:58;100077.28;;;22.28;43.24
17230;BME280;8731;50.364;8.958;2023-06-14T19:44:21;100085.00;;;22.26;43.22
17230;BME280;8731;50.364;8.958;2023-06-14T19:48:43;100091.59;;;22.20;43.58
17230;BME280;8731;50.364;8.958;2023-06-14T19:53:07;100095.56;;;22.12;43.31
17230;BME280;8731;50.364;8.958;2023-06-14T19:57:30;100099.03;;;21.94;43.33
17230;BME280;8731;50.364;8.958;2023-06-14T20:01:52;100104.91;;;21.90;44.41
17230;BME280;8731;50.364;8.958;2023-06-14T20:06:14;100111.59;;;21.85;44.38
17230;BME280;8731;50.364;8.958;2023-06-14T20:10:38;100117.47;;;21.63;45.06
17230;BME280;8731;50.364;8.958;2023-06-14T20:15:01;100121.63;;;21.60;44.72
17230;BME280;8731;50.364;8.958;2023-06-14T20:19:24;100124.66;;;21.51;44.97
17230;BME280;8731;50.364;8.958;2023-06-14T20:23:46;100128.72;;;21.28;45.72
17230;BME280;8731;50.364;8.958;2023-06-14T20:28:11;100134.09;;;20.65;49.12
17230;BME280;8731;50.364;8.958;2023-06-14T20:32:35;100134.94;;;20.81;48.00
17230;BME280;8731;50.364;8.958;2023-06-14T20:36:57;100130.69;;;20.82;47.85
17230;BME280;8731;50.364;8.958;2023-06-14T20:41:19;100128.88;;;20.32;49.62
17230;BME280;8731;50.364;8.958;2023-06-14T20:45:43;100134.34;;;20.53;48.67
17230;BME280;8731;50.364;8.958;2023-06-14T20:50:07;100141.94;;;20.50;47.94
17230;BME280;8731;50.364;8.958;2023-06-14T20:54:32;100142.91;;;20.52;47.09
17230;BME280;8731;50.364;8.958;2023-06-14T20:58:54;100135.94;;;20.18;48.95
17230;BME280;8731;50.364;8.958;2023-06-14T21:03:18;100136.13;;;19.59;51.43
17230;BME280;8731;50.364;8.958;2023-06-14T21:07:40;100141.44;;;19.62;51.40
17230;BME280;8731;50.364;8.958;2023-06-14T21:12:04;100146.47;;;19.30;52.72
17230;BME280;8731;50.364;8.958;2023-06-14T21:16:26;100143.97;;;19.46;51.96
17230;BME280;8731;50.364;8.958;2023-06-14T21:20:51;100149.66;;;19.26;52.36
17230;BME280;8731;50.364;8.958;2023-06-14T21:25:13;100145.31;;;18.95;53.44
17230;BME280;8731;50.364;8.958;2023-06-14T21:29:36;100147.91;;;18.95;53.28
17230;BME280;8731;50.364;8.958;2023-06-14T21:33:58;100152.50;;;19.16;51.67
17230;BME280;8731;50.364;8.958;2023-06-14T21:38:22;100147.88;;;18.81;54.08
17230;BME280;8731;50.364;8.958;2023-06-14T21:42:45;100146.22;;;18.68;54.70
17230;BME280;8731;50.364;8.958;2023-06-14T21:47:07;100162.03;;;18.59;54.32
17230;BME280;8731;50.364;8.958;2023-06-14T21:51:30;100158.47;;;18.57;53.96
17230;BME280;8731;50.364;8.958;2023-06-14T21:55:54;100166.28;;;18.03;55.70
17230;BME280;8731;50.364;8.958;2023-06-14T22:00:17;100166.56;;;18.35;54.81
17230;BME280;8731;50.364;8.958;2023-06-14T22:04:41;100160.63;;;18.36;54.86
17230;BME280;8731;50.364;8.958;2023-06-14T22:09:04;100171.88;;;17.05;60.58
17230;BME280;8731;50.364;8.958;2023-06-14T22:13:28;100161.47;;;17.81;57.09
17230;BME280;8731;50.364;8.958;2023-06-14T22:17:53;100166.66;;;17.96;56.15
17230;BME280;8731;50.364;8.958;2023-06-14T22:22:17;100178.06;;;16.82;60.97
17230;BME280;8731;50.364;8.958;2023-06-14T22:26:44;100172.84;;;17.71;56.91
17230;BME280;8731;50.364;8.958;2023-06-14T22:31:10;100174.84;;;17.75;56.76
17230;BME280;8731;50.364;8.958;2023-06-14T22:35:34;100177.09;;;17.71;56.60
17230;BME280;8731;50.364;8.958;2023-06-14T22:39:57;100175.22;;;17.55;58.51
17230;BME280;8731;50.364;8.958;2023-06-14T22:44:19;100169.38;;;17.71;57.28
17230;BME280;8731;50.364;8.958;2023-06-14T22:48:43;100176.50;;;16.97;61.55
17230;BME280;8731;50.364;8.958;2023-06-14T22:53:06;100175.75;;;17.11;60.11
17230;BME280;8731;50.364;8.958;2023-06-14T22:57:29;100173.91;;;16.84;62.18
17230;BME280;8731;50.364;8.958;2023-06-14T23:01:52;100172.59;;;17.15;59.34
17230;BME280;8731;50.364;8.958;2023-06-14T23:06:17;100183.00;;;16.92;60.62
17230;BME280;8731;50.364;8.958;2023-06-14T23:10:45;100186.19;;;16.51;63.03
17230;BME280;8731;50.364;8.958;2023-06-14T23:15:08;100192.06;;;15.77;66.35
17230;BME280;8731;50.364;8.958;2023-06-14T23:19:31;100183.47;;;16.25;64.31
17230;BME280;8731;50.364;8.958;2023-06-14T23:23:55;100175.63;;;16.72;60.87
17230;BME280;8731;50.364;8.958;2023-06-14T23:28:17;100182.81;;;16.52;62.20